sensor_id;sensor_type;location;lat;lon;timestamp;pressure;altitude;pressure_sealevel;temperature;humidity
4449;BME280;2237;51.870;6.160;2023-03-04T00:02:16;102484.38;;;8.51;92.04
4449;BME280;2237;51.870;6.160;2023-03-04T00:04:42;102486.97;;;8.50;91.89
4449;BME280;2237;51.870;6.160;2023-03-04T00:07:09;102490.34;;;8.47;92.00
4449;BME280;2237;51.870;6.160;2023-03-04T00:09:35;102487.63;;;8.37;93.15
4449;BME280;2237;51.870;6.160;2023-03-04T00:12:02;102480.72;;;8.37;93.26
4449;BME280;2237;51.870;6.160;2023-03-04T00:14:28;102476.38;;;8.36;92.91
4449;BME280;2237;51.870;6.160;2023-03-04T00:16:55;102480.72;;;8.37;92.13
4449;BME280;2237;51.870;6.160;2023-03-04T00:19:22;102479.88;;;8.40;91.90
4449;BME280;2237;51.870;6.160;2023-03-04T00:21:48;102477.38;;;8.44;91.27
4449;BME280;2237;51.870;6.160;2023-03-04T00:24:14;102489.38;;;8.38;91.69
4449;BME280;2237;51.870;6.160;2023-03-04T00:26:41;102485.84;;;8.31;92.63
4449;BME280;2237;51.870;6.160;2023-03-04T00:29:07;102472.69;;;8.21;93.81
4449;BME280;2237;51.870;6.160;2023-03-04T00:31:33;102481.13;;;8.08;95.57
4449;BME280;2237;51.870;6.160;2023-03-04T00:34:00;102477.72;;;8.10;95.52
4449;BME280;2237;51.870;6.160;2023-03-04T00:36:26;102470.84;;;8.12;95.53
4449;BME280;2237;51.870;6.160;2023-03-04T00:38:52;102471.81;;;8.20;94.85
4449;BME280;2237;51.870;6.160;2023-03-04T00:41:19;102470.97;;;8.24;94.39
4449;BME280;2237;51.870;6.160;2023-03-04T00:43:45;102470.13;;;8.24;94.19
4449;BME280;2237;51.870;6.160;2023-03-04T00:46:11;102463.28;;;8.27;94.25
4449;BME280;2237;51.870;6.160;2023-03-04T00:48:38;102469.38;;;8.29;93.89
4449;BME280;2237;51.870;6.160;2023-03-04T00:51:04;102458.91;;;8.26;94.46
4449;BME280;2237;51.870;6.160;2023-03-04T00:53:31;102472.84;;;8.31;94.22
4449;BME280;2237;51.870;6.160;2023-03-04T00:55:57;102472.06;;;8.35;94.13
4449;BME280;2237;51.870;6.160;2023-03-04T00:58:24;102467.53;;;8.25;94.79
4449;BME280;2237;51.870;6.160;2023-03-04T01:00:50;102473.56;;;8.24;95.09
4449;BME280;2237;51.870;6.160;2023-03-04T01:03:16;102469.22;;;8.22;95.49
4449;BME280;2237;51.870;6.160;2023-03-04T01:05:43;102467.53;;;8.25;95.46
4449;BME280;2237;51.870;6.160;2023-03-04T01:08:09;102463.28;;;8.27;95.36
4449;BME280;2237;51.870;6.160;2023-03-04T01:10:35;102465.03;;;8.28;95.48
4449;BME280;2237;51.870;6.160;2023-03-04T01:13:02;102465.06;;;8.30;95.40
4449;BME280;2237;51.870;6.160;2023-03-04T01:15:28;102472.84;;;8.30;95.59
4449;BME280;2237;51.870;6.160;2023-03-04T01:17:55;102470.22;;;8.28;95.83
4449;BME280;2237;51.870;6.160;2023-03-04T01:20:21;102470.22;;;8.28;95.83
4449;BME280;2237;51.870;6.160;2023-03-04T01:22:48;102469.38;;;8.31;95.90
4449;BME280;2237;51.870;6.160;2023-03-04T01:25:14;102461.50;;;8.26;96.71
4449;BME280;2237;51.870;6.160;2023-03-04T01:27:40;102472.66;;;8.18;97.72
4449;BME280;2237;51.870;6.160;2023-03-04T01:30:07;102456.19;;;8.17;97.61
4449;BME280;2237;51.870;6.160;2023-03-04T01:32:34;102456.19;;;8.19;97.89
4449;BME280;2237;51.870;6.160;2023-03-04T01:35:00;102453.66;;;8.20;97.64
4449;BME280;2237;51.870;6.160;2023-03-04T01:37:27;102451.00;;;8.17;98.46
4449;BME280;2237;51.870;6.160;2023-03-04T01:39:53;102450.13;;;8.15;98.55
4449;BME280;2237;51.870;6.160;2023-03-04T01:42:21;102448.41;;;8.19;98.24
4449;BME280;2237;51.870;6.160;2023-03-04T01:44:49;102449.38;;;8.24;97.81
4449;BME280;2237;51.870;6.160;2023-03-04T01:47:16;102447.56;;;8.18;97.92
4449;BME280;2237;51.870;6.160;2023-03-04T01:49:42;102447.56;;;8.18;98.46
4449;BME280;2237;51.870;6.160;2023-03-04T01:52:11;102446.66;;;8.16;98.71
4449;BME280;2237;51.870;6.160;2023-03-04T01:54:38;102442.28;;;8.12;99.27
4449;BME280;2237;51.870;6.160;2023-03-04T01:57:19;102445.72;;;8.11;100.00
4449;BME280;2237;51.870;6.160;2023-03-04T01:59:46;102435.28;;;8.05;100.00
4449;BME280;2237;51.870;6.160;2023-03-04T02:02:13;102443.06;;;8.05;100.00
4449;BME280;2237;51.870;6.160;2023-03-04T02:04:40;102441.25;;;7.98;100.00
4449;BME280;2237;51.870;6.160;2023-03-04T02:07:07;102436.00;;;7.96;100.00
4449;BME280;2237;51.870;6.160;2023-03-04T02:09:35;102433.50;;;8.04;100.00
4449;BME280;2237;51.870;6.160;2023-03-04T02:12:01;102426.56;;;8.02;100.00
4449;BME280;2237;51.870;6.160;2023-03-04T02:14:28;102421.34;;;7.98;100.00
4449;BME280;2237;51.870;6.160;2023-03-04T02:16:54;102426.66;;;8.06;100.00
4449;BME280;2237;51.870;6.160;2023-03-04T02:19:56;102413.75;;;8.14;100.00
4449;BME280;2237;51.870;6.160;2023-03-04T02:22:25;102424.09;;;8.11;99.74
4449;BME280;2237;51.870;6.160;2023-03-04T02:24:54;102418.03;;;8.09;100.00
4449;BME280;2237;51.870;6.160;2023-03-04T02:27:22;102414.50;;;8.04;100.00
4449;BME280;2237;51.870;6.160;2023-03-04T02:29:49;102415.34;;;8.04;100.00
4449;BME280;2237;51.870;6.160;2023-03-04T02:32:15;102412.75;;;8.04;100.00
4449;BME280;2237;51.870;6.160;2023-03-04T02:34:47;102411.97;;;8.08;100.00
4449;BME280;2237;51.870;6.160;2023-03-04T02:37:16;102409.38;;;8.08;100.00
4449;BME280;2237;51.870;6.160;2023-03-04T02:39:45;102405.88;;;8.06;100.00
4449;BME280;2237;51.870;6.160;2023-03-04T02:42:13;102411.75;;;7.93;100.00
4449;BME280;2237;51.870;6.160;2023-03-04T02:44:43;102404.78;;;7.90;100.00
4449;BME280;2237;51.870;6.160;2023-03-04T02:47:13;102409.25;;;7.99;100.00
4449;BME280;2237;51.870;6.160;2023-03-04T02:49:42;102407.56;;;8.03;100.00
4449;BME280;2237;51.870;6.160;2023-03-04T02:52:16;102404.19;;;8.08;100.00
4449;BME280;2237;51.870;6.160;2023-03-04T02:54:44;102403.38;;;8.12;100.00
4449;BME280;2237;51.870;6.160;2023-03-04T02:57:11;102395.47;;;8.03;100.00
4449;BME280;2237;51.870;6.160;2023-03-04T02:59:40;102400.69;;;8.08;100.00
4449;BME280;2237;51.870;6.160;2023-03-04T03:02:07;102393.75;;;8.04;100.00
4449;BME280;2237;51.870;6.160;2023-03-04T03:04:35;102391.13;;;8.02;100.00
4449;BME280;2237;51.870;6.160;2023-03-04T03:07:03;102393.72;;;8.02;100.00
4449;BME280;2237;51.870;6.160;2023-03-04T03:09:29;102397.94;;;7.95;100.00
4449;BME280;2237;51.870;6.160;2023-03-04T03:11:55;102388.22;;;7.81;100.00
4449;BME280;2237;51.870;6.160;2023-03-04T03:14:22;102376.97;;;7.79;100.00
4449;BME280;2237;51.870;6.160;2023-03-04T03:16:48;102383.84;;;7.75;100.00
4449;BME280;2237;51.870;6.160;2023-03-04T03:19:14;102381.22;;;7.75;100.00
4449;BME280;2237;51.870;6.160;2023-03-04T03:21:41;102378.72;;;7.81;100.00
4449;BME280;2237;51.870;6.160;2023-03-04T03:24:07;102370.16;;;7.85;100.00
4449;BME280;2237;51.870;6.160;2023-03-04T03:26:33;102375.31;;;7.82;100.00
4449;BME280;2237;51.870;6.160;2023-03-04T03:29:00;102366.63;;;7.80;99.73
4449;BME280;2237;51.870;6.160;2023-03-04T03:31:26;102376.22;;;7.86;100.00
4449;BME280;2237;51.870;6.160;2023-03-04T03:33:53;102365.00;;;7.90;99.83
4449;BME280;2237;51.870;6.160;2023-03-04T03:36:19;102365.97;;;7.95;99.15
4449;BME280;2237;51.870;6.160;2023-03-04T03:38:45;102359.94;;;7.97;99.10
4449;BME280;2237;51.870;6.160;2023-03-04T03:41:12;102362.50;;;7.96;99.39
4449;BME280;2237;51.870;6.160;2023-03-04T03:43:38;102368.56;;;7.96;99.48
4449;BME280;2237;51.870;6.160;2023-03-04T03:46:04;102366.84;;;7.98;99.41
4449;BME280;2237;51.870;6.160;2023-03-04T03:48:31;102368.66;;;8.03;99.03
4449;BME280;2237;51.870;6.160;2023-03-04T03:50:57;102362.59;;;8.02;98.69
4449;BME280;2237;51.870;6.160;2023-03-04T03:53:23;102364.38;;;8.06;98.56
4449;BME280;2237;51.870;6.160;2023-03-04T03:55:50;102368.69;;;8.06;98.78
4449;BME280;2237;51.870;6.160;2023-03-04T03:58:16;102367.81;;;8.05;98.78
4449;BME280;2237;51.870;6.160;2023-03-04T04:00:42;102366.94;;;8.03;99.03
4449;BME280;2237;51.870;6.160;2023-03-04T04:03:13;102374.56;;;7.91;100.00
4449;BME280;2237;51.870;6.160;2023-03-04T04:05:40;102373.72;;;7.92;100.00
4449;BME280;2237;51.870;6.160;2023-03-04T04:08:06;102372.63;;;7.75;100.00
4449;BME280;2237;51.870;6.160;2023-03-04T04:10:32;102370.91;;;7.77;100.00
4449;BME280;2237;51.870;6.160;2023-03-04T04:12:59;102366.56;;;7.76;100.00
4449;BME280;2237;51.870;6.160;2023-03-04T04:15:25;102362.34;;;7.84;100.00
4449;BME280;2237;51.870;6.160;2023-03-04T04:17:51;102365.84;;;7.86;100.00
4449;BME280;2237;51.870;6.160;2023-03-04T04:20:18;102364.91;;;7.82;100.00
4449;BME280;2237;51.870;6.160;2023-03-04T04:22:44;102366.63;;;7.82;100.00
4449;BME280;2237;51.870;6.160;2023-03-04T04:25:10;102363.91;;;7.71;100.00
4449;BME280;2237;51.870;6.160;2023-03-04T04:27:37;102362.06;;;7.64;100.00
4449;BME280;2237;51.870;6.160;2023-03-04T04:30:04;102366.47;;;7.68;100.00
4449;BME280;2237;51.870;6.160;2023-03-04T04:32:31;102366.47;;;7.70;100.00
4449;BME280;2237;51.870;6.160;2023-03-04T04:34:57;102360.53;;;7.77;100.00
4449;BME280;2237;51.870;6.160;2023-03-04T04:37:23;102366.50;;;7.71;100.00
4449;BME280;2237;51.870;6.160;2023-03-04T04:39:50;102370.69;;;7.63;100.00
4449;BME280;2237;51.870;6.160;2023-03-04T04:42:17;102366.41;;;7.65;100.00
4449;BME280;2237;51.870;6.160;2023-03-04T04:44:43;102368.22;;;7.71;100.00
4449;BME280;2237;51.870;6.160;2023-03-04T04:47:09;102365.63;;;7.71;100.00
4449;BME280;2237;51.870;6.160;2023-03-04T04:49:36;102370.81;;;7.71;100.00
4449;BME280;2237;51.870;6.160;2023-03-04T04:52:02;102365.53;;;7.66;100.00
4449;BME280;2237;51.870;6.160;2023-03-04T04:54:29;102370.69;;;7.62;100.00
4449;BME280;2237;51.870;6.160;2023-03-04T04:56:55;102375.03;;;7.64;100.00
4449;BME280;2237;51.870;6.160;2023-03-04T04:59:21;102365.50;;;7.60;100.00
4449;BME280;2237;51.870;6.160;2023-03-04T05:01:48;102372.38;;;7.60;100.00
4449;BME280;2237;51.870;6.160;2023-03-04T05:04:14;102369.88;;;7.66;100.00
4449;BME280;2237;51.870;6.160;2023-03-04T05:06:41;102370.81;;;7.71;100.00
4449;BME280;2237;51.870;6.160;2023-03-04T05:09:08;102370.81;;;7.72;100.00
4449;BME280;2237;51.870;6.160;2023-03-04T05:11:34;102367.28;;;7.66;100.00
4449;BME280;2237;51.870;6.160;2023-03-04T05:14:01;102373.41;;;7.71;100.00
4449;BME280;2237;51.870;6.160;2023-03-04T05:16:27;102372.63;;;7.75;100.00
4449;BME280;2237;51.870;6.160;2023-03-04T05:18:53;102368.31;;;7.77;100.00
4449;BME280;2237;51.870;6.160;2023-03-04T05:21:20;102369.09;;;7.73;100.00
4449;BME280;2237;51.870;6.160;2023-03-04T05:23:46;102369.06;;;7.70;100.00
4449;BME280;2237;51.870;6.160;2023-03-04T05:26:15;102369.06;;;7.70;100.00
4449;BME280;2237;51.870;6.160;2023-03-04T05:28:42;102373.28;;;7.63;100.00
4449;BME280;2237;51.870;6.160;2023-03-04T05:31:08;102361.97;;;7.57;100.00
4449;BME280;2237;51.870;6.160;2023-03-04T05:33:35;102368.91;;;7.61;100.00
4449;BME280;2237;51.870;6.160;2023-03-04T05:36:03;102369.81;;;7.61;100.00
4449;BME280;2237;51.870;6.160;2023-03-04T05:38:30;102363.69;;;7.58;100.00
4449;BME280;2237;51.870;6.160;2023-03-04T05:41:02;102384.31;;;7.49;100.00
4449;BME280;2237;51.870;6.160;2023-03-04T05:43:29;102367.03;;;7.49;100.00
4449;BME280;2237;51.870;6.160;2023-03-04T05:45:56;102374.06;;;7.58;100.00
4449;BME280;2237;51.870;6.160;2023-03-04T05:48:22;102368.03;;;7.57;100.00
4449;BME280;2237;51.870;6.160;2023-03-04T05:50:53;102368.91;;;7.61;100.00
4449;BME280;2237;51.870;6.160;2023-03-04T05:53:20;102378.50;;;7.65;100.00
4449;BME280;2237;51.870;6.160;2023-03-04T05:55:46;102370.72;;;7.66;100.00
4449;BME280;2237;51.870;6.160;2023-03-04T05:58:14;102373.41;;;7.72;100.00
4449;BME280;2237;51.870;6.160;2023-03-04T06:00:40;102381.22;;;7.75;100.00
4449;BME280;2237;51.870;6.160;2023-03-04T06:03:13;102381.16;;;7.69;100.00
4449;BME280;2237;51.870;6.160;2023-03-04T06:05:40;102375.94;;;7.68;100.00
4449;BME280;2237;51.870;6.160;2023-03-04T06:08:06;102384.56;;;7.67;100.00
4449;BME280;2237;51.870;6.160;2023-03-04T06:10:32;102395.72;;;7.60;100.00
4449;BME280;2237;51.870;6.160;2023-03-04T06:12:59;102384.44;;;7.56;100.00
4449;BME280;2237;51.870;6.160;2023-03-04T06:15:25;102382.75;;;7.60;100.00
4449;BME280;2237;51.870;6.160;2023-03-04T06:17:51;102382.81;;;7.63;100.00
4449;BME280;2237;51.870;6.160;2023-03-04T06:20:18;102381.97;;;7.67;100.00
4449;BME280;2237;51.870;6.160;2023-03-04T06:22:44;102385.41;;;7.63;100.00
4449;BME280;2237;51.870;6.160;2023-03-04T06:25:11;102381.88;;;7.61;100.00
4449;BME280;2237;51.870;6.160;2023-03-04T06:27:37;102388.91;;;7.68;100.00
4449;BME280;2237;51.870;6.160;2023-03-04T06:30:04;102389.81;;;7.70;100.00
4449;BME280;2237;51.870;6.160;2023-03-04T06:32:31;102378.59;;;7.71;100.00
4449;BME280;2237;51.870;6.160;2023-03-04T06:34:57;102387.16;;;7.65;100.00
4449;BME280;2237;51.870;6.160;2023-03-04T06:37:23;102384.72;;;7.76;100.00
4449;BME280;2237;51.870;6.160;2023-03-04T06:39:50;102383.97;;;7.84;100.00
4449;BME280;2237;51.870;6.160;2023-03-04T06:42:16;102384.03;;;7.90;100.00
4449;BME280;2237;51.870;6.160;2023-03-04T06:44:42;102385.88;;;7.99;100.00
4449;BME280;2237;51.870;6.160;2023-03-04T06:47:09;102389.34;;;7.98;100.00
4449;BME280;2237;51.870;6.160;2023-03-04T06:49:35;102393.59;;;7.93;100.00
4449;BME280;2237;51.870;6.160;2023-03-04T06:52:01;102392.66;;;7.86;100.00
4449;BME280;2237;51.870;6.160;2023-03-04T06:54:28;102390.84;;;7.82;100.00
4449;BME280;2237;51.870;6.160;2023-03-04T06:56:54;102391.81;;;7.89;100.00
4449;BME280;2237;51.870;6.160;2023-03-04T06:59:21;102392.63;;;7.83;100.00
4449;BME280;2237;51.870;6.160;2023-03-04T07:01:47;102384.66;;;7.73;100.00
4449;BME280;2237;51.870;6.160;2023-03-04T07:04:14;102384.78;;;7.82;100.00
4449;BME280;2237;51.870;6.160;2023-03-04T07:06:40;102394.50;;;7.96;100.00
4449;BME280;2237;51.870;6.160;2023-03-04T07:09:06;102395.34;;;7.95;100.00
4449;BME280;2237;51.870;6.160;2023-03-04T07:11:33;102397.19;;;8.04;100.00
4449;BME280;2237;51.870;6.160;2023-03-04T07:13:59;102395.50;;;8.06;100.00
4449;BME280;2237;51.870;6.160;2023-03-04T07:16:26;102398.16;;;8.09;100.00
4449;BME280;2237;51.870;6.160;2023-03-04T07:18:52;102404.28;;;8.17;100.00
4449;BME280;2237;51.870;6.160;2023-03-04T07:21:18;102395.72;;;8.23;100.00
4449;BME280;2237;51.870;6.160;2023-03-04T07:23:45;102398.34;;;8.26;100.00
4449;BME280;2237;51.870;6.160;2023-03-04T07:26:12;102396.56;;;8.22;100.00
4449;BME280;2237;51.870;6.160;2023-03-04T07:28:38;102412.00;;;8.10;100.00
4449;BME280;2237;51.870;6.160;2023-03-04T07:31:13;102405.97;;;8.12;100.00
4449;BME280;2237;51.870;6.160;2023-03-04T07:33:44;102409.59;;;8.26;100.00
4449;BME280;2237;51.870;6.160;2023-03-04T07:36:10;102406.28;;;8.36;100.00
4449;BME280;2237;51.870;6.160;2023-03-04T07:38:47;102411.50;;;8.38;100.00
4449;BME280;2237;51.870;6.160;2023-03-04T07:41:14;102412.09;;;8.17;100.00
4449;BME280;2237;51.870;6.160;2023-03-04T07:43:41;102407.56;;;8.04;100.00
4449;BME280;2237;51.870;6.160;2023-03-04T07:46:08;102409.22;;;7.97;100.00
4449;BME280;2237;51.870;6.160;2023-03-04T07:48:35;102405.69;;;7.91;100.00
4449;BME280;2237;51.870;6.160;2023-03-04T07:51:06;102414.44;;;7.99;100.00
4449;BME280;2237;51.870;6.160;2023-03-04T07:53:33;102406.59;;;7.94;100.00
4449;BME280;2237;51.870;6.160;2023-03-04T07:55:59;102414.56;;;8.07;100.00
4449;BME280;2237;51.870;6.160;2023-03-04T07:58:28;102410.19;;;8.06;100.00
4449;BME280;2237;51.870;6.160;2023-03-04T08:00:54;102403.72;;;7.75;100.00
4449;BME280;2237;51.870;6.160;2023-03-04T08:03:21;102419.66;;;8.02;100.00
4449;BME280;2237;51.870;6.160;2023-03-04T08:05:47;102412.53;;;7.86;100.00
4449;BME280;2237;51.870;6.160;2023-03-04T08:08:13;102414.34;;;7.93;100.00
4449;BME280;2237;51.870;6.160;2023-03-04T08:10:42;102412.69;;;7.98;100.00
4449;BME280;2237;51.870;6.160;2023-03-04T08:13:09;102415.72;;;8.28;100.00
4449;BME280;2237;51.870;6.160;2023-03-04T08:15:39;102419.88;;;8.17;100.00
4449;BME280;2237;51.870;6.160;2023-03-04T08:18:06;102418.72;;;7.97;100.00
4449;BME280;2237;51.870;6.160;2023-03-04T08:20:32;102419.75;;;8.07;100.00
4449;BME280;2237;51.870;6.160;2023-03-04T08:22:58;102417.84;;;7.96;100.00
4449;BME280;2237;51.870;6.160;2023-03-04T08:25:25;102418.59;;;7.88;100.00
4449;BME280;2237;51.870;6.160;2023-03-04T08:27:51;102423.34;;;8.19;100.00
4449;BME280;2237;51.870;6.160;2023-03-04T08:30:18;102426.25;;;8.40;100.00
4449;BME280;2237;51.870;6.160;2023-03-04T08:32:44;102426.59;;;8.69;100.00
4449;BME280;2237;51.870;6.160;2023-03-04T08:35:10;102429.34;;;8.86;100.00
4449;BME280;2237;51.870;6.160;2023-03-04T08:37:37;102435.00;;;8.48;100.00
4449;BME280;2237;51.870;6.160;2023-03-04T08:40:03;102426.78;;;8.15;100.00
4449;BME280;2237;51.870;6.160;2023-03-04T08:42:30;102432.84;;;8.19;100.00
4449;BME280;2237;51.870;6.160;2023-03-04T08:44:56;102423.63;;;8.39;100.00
4449;BME280;2237;51.870;6.160;2023-03-04T08:47:23;102418.56;;;8.49;100.00
4449;BME280;2237;51.870;6.160;2023-03-04T08:49:49;102430.97;;;8.75;100.00
4449;BME280;2237;51.870;6.160;2023-03-04T08:52:17;102426.53;;;8.65;100.00
4449;BME280;2237;51.870;6.160;2023-03-04T08:54:43;102422.38;;;8.80;100.00
4449;BME280;2237;51.870;6.160;2023-03-04T08:57:09;102427.56;;;8.79;100.00
4449;BME280;2237;51.870;6.160;2023-03-04T08:59:36;102423.31;;;8.88;100.00
4449;BME280;2237;51.870;6.160;2023-03-04T09:02:03;102432.13;;;9.02;100.00
4449;BME280;2237;51.870;6.160;2023-03-04T09:04:30;102421.63;;;8.90;100.00
4449;BME280;2237;51.870;6.160;2023-03-04T09:06:56;102430.19;;;8.83;100.00
4449;BME280;2237;51.870;6.160;2023-03-04T09:09:23;102425.31;;;9.15;100.00
4449;BME280;2237;51.870;6.160;2023-03-04T09:11:49;102422.16;;;9.51;100.00
4449;BME280;2237;51.870;6.160;2023-03-04T09:14:16;102422.00;;;9.33;100.00
4449;BME280;2237;51.870;6.160;2023-03-04T09:16:42;102426.06;;;9.03;100.00
4449;BME280;2237;51.870;6.160;2023-03-04T09:19:08;102419.94;;;8.95;100.00
4449;BME280;2237;51.870;6.160;2023-03-04T09:21:35;102415.34;;;8.72;100.00
4449;BME280;2237;51.870;6.160;2023-03-04T09:24:01;102414.50;;;8.73;100.00
4449;BME280;2237;51.870;6.160;2023-03-04T09:26:28;102416.19;;;8.68;100.00
4449;BME280;2237;51.870;6.160;2023-03-04T09:28:59;102421.22;;;8.54;100.00
4449;BME280;2237;51.870;6.160;2023-03-04T09:31:26;102415.44;;;8.82;100.00
4449;BME280;2237;51.870;6.160;2023-03-04T09:33:55;102416.22;;;8.72;100.00
4449;BME280;2237;51.870;6.160;2023-03-04T09:36:22;102420.59;;;8.75;100.00
4449;BME280;2237;51.870;6.160;2023-03-04T09:38:48;102416.56;;;9.08;100.00
4449;BME280;2237;51.870;6.160;2023-03-04T09:41:24;102415.69;;;9.02;100.00
4449;BME280;2237;51.870;6.160;2023-03-04T09:43:53;102416.50;;;8.96;100.00
4449;BME280;2237;51.870;6.160;2023-03-04T09:46:31;102410.88;;;9.50;100.00
4449;BME280;2237;51.870;6.160;2023-03-04T09:48:58;102405.59;;;9.41;100.00
4449;BME280;2237;51.870;6.160;2023-03-04T09:51:56;102411.63;;;9.34;100.00
4449;BME280;2237;51.870;6.160;2023-03-04T09:57:36;102400.13;;;9.05;100.00
4449;BME280;2237;51.870;6.160;2023-03-04T10:00:12;102397.34;;;8.88;100.00
4449;BME280;2237;51.870;6.160;2023-03-04T10:03:03;102395.00;;;9.14;100.00
4449;BME280;2237;51.870;6.160;2023-03-04T10:05:33;102400.31;;;9.28;100.00
4449;BME280;2237;51.870;6.160;2023-03-04T10:08:25;102395.78;;;9.07;100.00
4449;BME280;2237;51.870;6.160;2023-03-04T10:10:57;102397.03;;;9.51;100.00
4449;BME280;2237;51.870;6.160;2023-03-04T10:16:11;102396.28;;;9.71;100.00
4449;BME280;2237;51.870;6.160;2023-03-04T10:21:38;102390.03;;;9.44;100.00
4449;BME280;2237;51.870;6.160;2023-03-04T10:24:12;102392.56;;;9.38;100.00
4449;BME280;2237;51.870;6.160;2023-03-04T10:26:43;102390.09;;;9.55;100.00
4449;BME280;2237;51.870;6.160;2023-03-04T10:29:19;102391.16;;;9.87;100.00
4449;BME280;2237;51.870;6.160;2023-03-04T10:31:46;102383.34;;;9.87;100.00
4449;BME280;2237;51.870;6.160;2023-03-04T10:34:14;102382.31;;;9.58;100.00
4449;BME280;2237;51.870;6.160;2023-03-04T10:37:01;102379.78;;;9.69;100.00
4449;BME280;2237;51.870;6.160;2023-03-04T10:39:30;102379.13;;;10.06;100.00
4449;BME280;2237;51.870;6.160;2023-03-04T10:44:52;102380.59;;;9.58;100.00
4449;BME280;2237;51.870;6.160;2023-03-04T10:47:22;102387.50;;;9.58;100.00
4449;BME280;2237;51.870;6.160;2023-03-04T10:50:00;102384.13;;;9.68;100.00
4449;BME280;2237;51.870;6.160;2023-03-04T10:52:30;102379.63;;;9.44;100.00
4449;BME280;2237;51.870;6.160;2023-03-04T10:55:14;102379.78;;;9.69;100.00
4449;BME280;2237;51.870;6.160;2023-03-04T10:57:43;102372.59;;;9.33;100.00
4449;BME280;2237;51.870;6.160;2023-03-04T11:02:46;102374.34;;;9.31;100.00
4449;BME280;2237;51.870;6.160;2023-03-04T11:07:47;102370.03;;;9.34;100.00
4449;BME280;2237;51.870;6.160;2023-03-04T11:10:22;102377.84;;;9.40;100.00
4449;BME280;2237;51.870;6.160;2023-03-04T11:12:55;102355.31;;;9.39;100.00
4449;BME280;2237;51.870;6.160;2023-03-04T11:15:26;102371.88;;;9.49;100.00
4449;BME280;2237;51.870;6.160;2023-03-04T11:17:56;102368.34;;;9.44;100.00
4449;BME280;2237;51.870;6.160;2023-03-04T11:20:36;102364.25;;;9.81;100.00
4449;BME280;2237;51.870;6.160;2023-03-04T11:23:08;102359.06;;;9.90;100.00
4449;BME280;2237;51.870;6.160;2023-03-04T11:25:44;102369.53;;;9.99;100.00
4449;BME280;2237;51.870;6.160;2023-03-04T11:28:18;102353.06;;;10.04;100.00
4449;BME280;2237;51.870;6.160;2023-03-04T11:36:25;102335.97;;;11.23;100.00
4449;BME280;2237;51.870;6.160;2023-03-04T11:38:53;102343.75;;;10.81;100.00
4449;BME280;2237;51.870;6.160;2023-03-04T11:41:31;102341.16;;;10.56;100.00
4449;BME280;2237;51.870;6.160;2023-03-04T11:43:59;102342.00;;;10.49;100.00
4449;BME280;2237;51.870;6.160;2023-03-04T11:47:30;102340.22;;;10.30;100.00
4449;BME280;2237;51.870;6.160;2023-03-04T12:00:23;102323.66;;;10.19;100.00
4449;BME280;2237;51.870;6.160;2023-03-04T12:03:09;102321.97;;;10.21;100.00
4449;BME280;2237;51.870;6.160;2023-03-04T12:05:48;102313.34;;;10.63;100.00
4449;BME280;2237;51.870;6.160;2023-03-04T12:08:41;102306.41;;;11.07;100.00
4449;BME280;2237;51.870;6.160;2023-03-04T12:11:27;102315.06;;;11.49;100.00
4449;BME280;2237;51.870;6.160;2023-03-04T12:20:09;102303.72;;;11.56;100.00
4449;BME280;2237;51.870;6.160;2023-03-04T12:22:46;102298.53;;;11.39;100.00
4449;BME280;2237;51.870;6.160;2023-03-04T12:25:35;102301.16;;;11.24;100.00
4449;BME280;2237;51.870;6.160;2023-03-04T12:31:18;102289.78;;;11.55;100.00
4449;BME280;2237;51.870;6.160;2023-03-04T12:34:29;102292.19;;;12.17;100.00
4449;BME280;2237;51.870;6.160;2023-03-04T12:53:16;102274.09;;;11.64;100.00
4449;BME280;2237;51.870;6.160;2023-03-04T12:55:46;102275.91;;;11.41;100.00
4449;BME280;2237;51.870;6.160;2023-03-04T12:58:20;102269.91;;;11.16;100.00
4449;BME280;2237;51.870;6.160;2023-03-04T13:00:56;102273.41;;;11.02;100.00
4449;BME280;2237;51.870;6.160;2023-03-04T13:03:52;102270.81;;;10.84;100.00
4449;BME280;2237;51.870;6.160;2023-03-04T13:09:10;102277.69;;;10.18;100.00
4449;BME280;2237;51.870;6.160;2023-03-04T13:11:50;102275.06;;;10.13;100.00
4449;BME280;2237;51.870;6.160;2023-03-04T13:14:22;102271.53;;;10.02;100.00
4449;BME280;2237;51.870;6.160;2023-03-04T13:16:54;102262.88;;;10.06;100.00
4449;BME280;2237;51.870;6.160;2023-03-04T13:19:41;102256.88;;;10.24;100.00
4449;BME280;2237;51.870;6.160;2023-03-04T13:41:23;102234.25;;;11.24;100.00
4449;BME280;2237;51.870;6.160;2023-03-04T13:44:01;102233.25;;;11.60;100.00
4449;BME280;2237;51.870;6.160;2023-03-04T13:46:29;102228.13;;;12.82;100.00
4449;BME280;2237;51.870;6.160;2023-03-04T13:49:07;102226.78;;;14.58;87.09
4449;BME280;2237;51.870;6.160;2023-03-04T13:51:41;102233.53;;;13.52;85.92
4449;BME280;2237;51.870;6.160;2023-03-04T13:54:52;102230.50;;;13.04;91.29
4449;BME280;2237;51.870;6.160;2023-03-04T13:57:20;102238.09;;;12.36;95.37
4449;BME280;2237;51.870;6.160;2023-03-04T13:59:53;102234.81;;;11.99;100.00
4449;BME280;2237;51.870;6.160;2023-03-04T14:02:22;102234.16;;;11.58;100.00
4449;BME280;2237;51.870;6.160;2023-03-04T14:07:30;102227.31;;;11.19;100.00
4449;BME280;2237;51.870;6.160;2023-03-04T14:12:44;102229.09;;;10.99;100.00
4449;BME280;2237;51.870;6.160;2023-03-04T14:17:38;102225.66;;;10.78;100.00
4449;BME280;2237;51.870;6.160;2023-03-04T14:20:23;102223.03;;;10.72;100.00
4449;BME280;2237;51.870;6.160;2023-03-04T14:22:51;102224.78;;;10.81;100.00
4449;BME280;2237;51.870;6.160;2023-03-04T14:27:45;102219.53;;;11.11;100.00
4449;BME280;2237;51.870;6.160;2023-03-04T14:30:26;102233.34;;;11.33;99.04
4449;BME280;2237;51.870;6.160;2023-03-04T14:33:14;102220.25;;;11.51;94.04
4449;BME280;2237;51.870;6.160;2023-03-04T14:35:46;102222.88;;;11.48;91.84
4449;BME280;2237;51.870;6.160;2023-03-04T14:38:31;102208.19;;;11.12;85.74
4449;BME280;2237;51.870;6.160;2023-03-04T14:41:03;102218.66;;;11.11;84.29
4449;BME280;2237;51.870;6.160;2023-03-04T14:43:35;102216.84;;;11.31;83.07
4449;BME280;2237;51.870;6.160;2023-03-04T14:46:07;102215.09;;;11.27;81.67
4449;BME280;2237;51.870;6.160;2023-03-04T14:48:37;102203.91;;;10.99;79.64
4449;BME280;2237;51.870;6.160;2023-03-04T14:51:03;102209.13;;;10.93;80.54
4449;BME280;2237;51.870;6.160;2023-03-04T14:53:31;102210.00;;;10.94;81.47
4449;BME280;2237;51.870;6.160;2023-03-04T14:56:02;102203.91;;;10.99;82.26